Time;durP1;ratioP1;P1;durP2;ratioP2;P2;SDS_P1;SDS_P2;PMS_P1;PMS_P2;Temp;Humidity;BMP_temperature;BMP_pressure;BME280_temperature;BME280_humidity;BME280_pressure;Samples;Min_cycle;Max_cycle;Signal;HPM_P1;HPM_P2
2021/07/09 00:01:54;;;;;;;10.80;9.73;;;;;;;23.17;66.90;100598.77;1727485;83;21060;-79
2021/07/09 00:04:23;;;;;;;12.25;8.88;;;;;;;23.15;66.81;100602.20;1727555;83;20989;-81
2021/07/09 00:06:50;;;;;;;10.85;8.28;;;;;;;23.10;67.10;100599.88;1727614;83;21064;-81
2021/07/09 00:09:18;;;;;;;9.55;8.23;;;;;;;23.04;67.53;100600.26;1726845;80;21063;-81
2021/07/09 00:11:47;;;;;;;16.23;9.90;;;;;;;23.00;67.50;100601.77;1747464;81;20985;-81
2021/07/09 00:14:18;;;;;;;11.18;10.00;;;;;;;22.96;67.54;100597.36;1761562;80;21516;-81
2021/07/09 00:16:47;;;;;;;13.13;10.50;;;;;;;22.95;67.58;100597.04;1759730;80;21012;-81
2021/07/09 00:19:15;;;;;;;11.95;9.58;;;;;;;22.92;67.57;100596.11;1762859;80;22030;-80
2021/07/09 00:21:41;;;;;;;10.95;9.75;;;;;;;22.89;67.70;100595.21;1765272;80;21000;-80
2021/07/09 00:24:09;;;;;;;11.22;8.80;;;;;;;22.90;67.83;100593.33;1752924;81;21035;-80
2021/07/09 00:26:36;;;;;;;10.00;8.40;;;;;;;22.87;67.82;100586.54;1750146;81;21036;-80
2021/07/09 00:29:03;;;;;;;14.73;9.38;;;;;;;22.86;67.89;100594.84;1741929;80;21005;-80
2021/07/09 00:31:34;;;;;;;11.18;9.13;;;;;;;22.84;67.78;100591.53;1750356;81;21036;-80
2021/07/09 00:34:05;;;;;;;12.28;8.83;;;;;;;22.80;67.75;100592.52;1739020;81;21044;-81
2021/07/09 00:36:34;;;;;;;12.15;9.28;;;;;;;22.74;67.95;100587.49;1743996;82;20959;-81
2021/07/09 00:39:01;;;;;;;9.93;8.88;;;;;;;22.74;68.21;100583.97;1747085;82;21061;-80
2021/07/09 00:41:28;;;;;;;13.03;9.13;;;;;;;22.73;68.08;100582.34;1747632;81;20990;-81
2021/07/09 00:43:55;;;;;;;13.10;9.03;;;;;;;22.72;67.91;100583.36;1752045;81;21355;-80
2021/07/09 00:46:37;;;;;;;13.70;9.90;;;;;;;22.73;67.82;100585.03;1750972;81;21784;-81
2021/07/09 00:49:05;;;;;;;9.35;8.38;;;;;;;22.71;67.85;100587.13;1751724;82;21078;-80
2021/07/09 00:51:32;;;;;;;10.78;9.60;;;;;;;22.69;67.86;100586.52;1749111;80;21033;-80
2021/07/09 00:53:59;;;;;;;9.98;8.45;;;;;;;22.69;68.02;100587.86;1751694;82;21013;-79
2021/07/09 00:56:27;;;;;;;9.83;8.05;;;;;;;22.68;68.17;100580.83;1751176;81;21057;-80
2021/07/09 00:58:55;;;;;;;9.83;8.80;;;;;;;22.66;67.96;100579.69;1751969;81;21068;-79
2021/07/09 01:01:21;;;;;;;9.48;8.48;;;;;;;22.64;67.90;100581.80;1752160;81;21017;-81
2021/07/09 01:03:47;;;;;;;13.40;8.65;;;;;;;22.62;67.80;100579.84;1752204;81;21013;-81
2021/07/09 01:06:14;;;;;;;10.05;9.03;;;;;;;22.61;67.88;100573.31;1745190;80;21487;-81
2021/07/09 01:08:40;;;;;;;8.73;7.55;;;;;;;22.60;68.07;100573.84;1722329;83;20957;-81
2021/07/09 01:11:09;;;;;;;12.47;10.15;;;;;;;22.57;68.15;100572.94;1721515;82;21534;-80
2021/07/09 01:13:35;;;;;;;12.37;10.18;;;;;;;22.57;67.98;100573.47;1738451;80;20973;-81
2021/07/09 01:16:02;;;;;;;11.80;9.38;;;;;;;22.54;67.90;100570.69;1740798;81;21555;-81
2021/07/09 01:18:28;;;;;;;12.25;8.50;;;;;;;22.51;67.82;100577.35;1722353;82;21043;-81
2021/07/09 01:20:55;;;;;;;11.57;7.78;;;;;;;22.50;68.11;100575.71;1721295;82;20989;-81
2021/07/09 01:23:26;;;;;;;10.93;8.80;;;;;;;22.47;68.17;100580.20;1721946;83;21314;-80
2021/07/09 01:25:52;;;;;;;10.75;9.68;;;;;;;22.41;68.44;100570.81;1722130;82;21542;-80
2021/07/09 01:28:19;;;;;;;22.65;8.88;;;;;;;22.42;68.22;100586.78;1721551;82;21020;-80
2021/07/09 01:30:45;;;;;;;10.58;8.68;;;;;;;22.40;68.05;100586.17;1722005;83;21495;-80
2021/07/09 01:33:11;;;;;;;10.93;9.60;;;;;;;22.38;67.99;100587.43;1731288;80;20942;-80
2021/07/09 01:35:37;;;;;;;10.88;8.68;;;;;;;22.30;68.68;100591.25;1735339;82;21036;-81
2021/07/09 01:38:07;;;;;;;13.32;8.68;;;;;;;22.30;68.68;100591.25;1745522;82;21044;-80
2021/07/09 01:40:36;;;;;;;9.80;8.48;;;;;;;22.27;68.75;100584.95;1724293;81;21483;-80
2021/07/09 01:43:04;;;;;;;13.72;8.30;;;;;;;22.24;68.76;100591.61;1721913;82;21350;-81
2021/07/09 01:45:30;;;;;;;11.63;8.35;;;;;;;22.24;68.76;100591.61;1722264;83;21001;-81
2021/07/09 01:47:57;;;;;;;9.78;8.68;;;;;;;22.22;68.55;100590.18;1722323;83;21511;-77
2021/07/09 01:50:25;;;;;;;11.45;8.70;;;;;;;22.20;68.31;100589.03;1722094;83;21373;-81
2021/07/09 01:52:52;;;;;;;11.30;8.83;;;;;;;22.20;68.45;100595.78;1722224;82;21326;-81
2021/07/09 01:55:19;;;;;;;8.83;7.92;;;;;;;22.20;68.54;100588.22;1722196;82;21554;-80
2021/07/09 01:57:46;;;;;;;14.50;9.50;;;;;;;22.19;68.54;100591.44;1722416;83;22289;-81
2021/07/09 02:00:20;;;;;;;11.50;8.60;;;;;;;22.20;68.48;100591.73;1722232;83;21028;-80
2021/07/09 02:02:46;;;;;;;11.88;8.50;;;;;;;22.20;68.31;100589.56;1722297;82;21080;-81
2021/07/09 02:05:16;;;;;;;12.37;8.30;;;;;;;22.19;68.22;100587.92;1722162;83;21025;-81
2021/07/09 02:07:43;;;;;;;;;;;;;;;22.17;68.12;100581.89;1724171;82;21036;-82
2021/07/09 02:10:11;;;;;;;9.90;7.75;;;;;;;22.14;68.58;100578.29;1721224;83;20170;-82
2021/07/09 02:12:39;;;;;;;9.10;7.67;;;;;;;22.14;68.16;100581.80;1721930;82;21103;-81
2021/07/09 02:15:10;;;;;;;8.08;7.28;;;;;;;22.15;68.07;100571.84;1721997;83;21063;-82
2021/07/09 02:17:37;;;;;;;10.90;7.10;;;;;;;22.09;68.08;100569.50;1732693;82;20984;-83
2021/07/09 02:20:08;;;;;;;17.55;7.53;;;;;;;22.00;67.94;100564.91;1742338;82;20980;-82
2021/07/09 02:22:34;;;;;;;9.78;6.78;;;;;;;22.04;68.26;100575.57;1742624;82;21019;-82
2021/07/09 02:25:05;;;;;;;11.30;6.70;;;;;;;22.06;67.93;100579.37;1742491;82;20980;-79
2021/07/09 02:27:28;;;;;;;13.05;6.83;;;;;;;22.06;68.06;100573.98;1739977;80;21017;-82
2021/07/09 02:29:54;;;;;;;9.35;6.67;;;;;;;22.05;67.94;100575.86;1737811;82;21040;-82
2021/07/09 02:32:21;;;;;;;12.88;7.45;;;;;;;22.04;67.74;100570.18;1737446;82;21896;-82
2021/07/09 02:34:47;;;;;;;13.88;6.53;;;;;;;22.06;67.52;100575.33;1737944;81;20972;-82
2021/07/09 02:37:13;;;;;;;10.85;6.67;;;;;;;22.03;67.53;100562.30;1737591;82;20985;-82
2021/07/09 02:39:40;;;;;;;10.13;6.58;;;;;;;22.03;67.53;100562.30;1738019;82;20996;-82
2021/07/09 02:42:08;;;;;;;8.30;6.62;;;;;;;22.08;67.37;100576.77;1737501;82;20977;-82
2021/07/09 02:44:36;;;;;;;13.22;6.67;;;;;;;22.05;67.34;100566.95;1737853;81;21000;-83
2021/07/09 02:47:03;;;;;;;8.60;6.70;;;;;;;22.09;67.10;100578.94;1737550;82;21017;-78
2021/07/09 02:49:29;;;;;;;7.55;6.60;;;;;;;22.09;66.83;100585.14;1737785;82;21028;-81
2021/07/09 02:51:56;;;;;;;13.40;7.12;;;;;;;22.09;66.83;100585.14;1738013;82;21467;-82
2021/07/09 02:54:22;;;;;;;9.00;6.47;;;;;;;22.11;67.27;100580.08;1737678;82;21051;-82
2021/07/09 02:56:49;;;;;;;8.18;5.78;;;;;;;22.11;67.27;100580.08;1737809;82;20993;-82
2021/07/09 02:59:15;;;;;;;7.90;6.28;;;;;;;22.15;66.94;100586.66;1737669;82;21519;-82
2021/07/09 03:01:41;;;;;;;9.73;6.17;;;;;;;22.12;66.38;100581.19;1737846;81;20965;-81
2021/07/09 03:04:11;;;;;;;6.53;5.53;;;;;;;22.12;66.38;100581.19;1737638;82;21032;-81
2021/07/09 03:06:38;;;;;;;7.75;5.50;;;;;;;22.17;66.32;100585.93;1737819;82;21017;-81
2021/07/09 03:09:08;;;;;;;10.95;4.95;;;;;;;22.20;66.20;100590.91;1737679;81;21491;-78
2021/07/09 03:11:36;;;;;;;8.33;5.53;;;;;;;22.20;66.20;100590.91;1737817;82;21051;-81
2021/07/09 03:14:05;;;;;;;16.15;5.75;;;;;;;22.23;66.08;100601.25;1737666;81;21016;-78
2021/07/09 03:16:31;;;;;;;10.05;6.03;;;;;;;22.23;66.08;100601.25;1738047;81;20985;-80
2021/07/09 03:18:58;;;;;;;8.05;5.80;;;;;;;22.26;66.04;100604.86;1737818;81;21031;-80
2021/07/09 03:21:24;;;;;;;10.30;5.65;;;;;;;22.29;65.88;100603.06;1737294;82;20992;-80
2021/07/09 03:23:50;;;;;;;9.40;6.53;;;;;;;22.30;65.64;100600.69;1737943;81;20984;-80
2021/07/09 03:26:16;;;;;;;11.28;6.20;;;;;;;22.32;65.50;100602.63;1737695;81;20964;-81
2021/07/09 03:28:43;;;;;;;8.53;5.30;;;;;;;22.33;65.70;100605.64;1741348;82;21534;-82
2021/07/09 03:31:09;;;;;;;9.18;5.05;;;;;;;22.35;65.67;100614.31;1742291;82;21027;-82
2021/07/09 03:33:35;;;;;;;12.05;5.08;;;;;;;22.38;65.65;100607.13;1742661;82;20992;-82
2021/07/09 03:36:03;;;;;;;10.30;6.33;;;;;;;22.40;65.41;100607.73;1742526;82;20949;-78
2021/07/09 03:38:29;;;;;;;13.50;5.28;;;;;;;22.41;65.27;100609.91;1742540;82;20984;-81
2021/07/09 03:41:04;;;;;;;8.30;5.90;;;;;;;22.41;65.07;100622.89;1742609;82;21491;-81
2021/07/09 03:43:30;;;;;;;8.45;4.67;;;;;;;22.42;65.03;100621.84;1742585;82;21570;-81
2021/07/09 03:45:56;;;;;;;9.35;6.00;;;;;;;22.44;65.08;100625.14;1742723;82;21514;-81
2021/07/09 03:48:23;;;;;;;8.93;6.00;;;;;;;22.50;65.25;100631.53;1742365;82;21879;-81
2021/07/09 03:50:50;;;;;;;10.65;5.22;;;;;;;22.51;65.18;100621.84;1742506;82;21483;-81
2021/07/09 03:53:16;;;;;;;8.40;5.42;;;;;;;22.54;64.90;100619.23;1742255;82;20945;-81
2021/07/09 03:55:44;;;;;;;11.50;7.17;;;;;;;22.56;64.94;100629.78;1742649;81;20981;-81
2021/07/09 03:58:10;;;;;;;42.23;11.05;;;;;;;22.56;64.83;100629.29;1742191;82;21036;-81
2021/07/09 04:00:37;;;;;;;15.13;6.97;;;;;;;22.56;65.07;100627.94;1742615;82;20937;-82
2021/07/09 04:03:03;;;;;;;11.57;5.97;;;;;;;22.61;65.02;100628.61;1742542;82;20969;-78
2021/07/09 04:05:30;;;;;;;11.22;5.72;;;;;;;22.64;64.85;100626.81;1742343;82;21431;-81
2021/07/09 04:07:56;;;;;;;8.85;6.85;;;;;;;22.64;64.61;100629.02;1742498;82;21522;-82
2021/07/09 04:10:22;;;;;;;11.55;5.47;;;;;;;22.68;64.55;100627.50;1742355;82;21452;-82
2021/07/09 04:12:49;;;;;;;14.35;5.87;;;;;;;22.70;64.40;100629.97;1742596;82;21028;-82
2021/07/09 04:15:15;;;;;;;13.75;6.08;;;;;;;22.72;64.71;100637.32;1742353;82;21483;-81
2021/07/09 04:17:42;;;;;;;15.68;6.58;;;;;;;22.72;64.73;100621.13;1742593;82;21032;-81
2021/07/09 04:20:09;;;;;;;17.57;6.28;;;;;;;22.74;64.86;100625.80;1742280;82;21024;-78
2021/07/09 04:22:36;;;;;;;16.37;5.62;;;;;;;22.77;64.97;100625.34;1742503;82;21479;-81
2021/07/09 04:25:05;;;;;;;20.85;7.87;;;;;;;22.80;64.54;100625.42;1742457;82;20976;-81
2021/07/09 04:27:32;;;;;;;14.10;6.30;;;;;;;22.82;64.37;100628.73;1742530;81;21578;-80
2021/07/09 04:29:59;;;;;;;14.40;6.95;;;;;;;22.85;64.36;100631.80;1742555;82;21555;-80
2021/07/09 04:32:25;;;;;;;25.35;7.05;;;;;;;22.86;64.13;100635.32;1742248;82;21008;-79
2021/07/09 04:34:51;;;;;;;12.20;5.55;;;;;;;22.88;64.37;100636.75;1742467;82;20973;-78
2021/07/09 04:37:18;;;;;;;9.83;5.20;;;;;;;22.88;64.14;100635.93;1742271;82;21047;-77
2021/07/09 04:39:44;;;;;;;23.25;6.72;;;;;;;22.90;64.10;100633.31;1742570;82;20996;-82
2021/07/09 04:42:11;;;;;;;14.30;5.85;;;;;;;22.96;64.05;100640.54;1742290;82;21000;-81
2021/07/09 04:44:38;;;;;;;13.78;6.70;;;;;;;23.03;63.79;100640.98;1742227;82;21487;-81
2021/07/09 04:47:04;;;;;;;11.55;5.53;;;;;;;23.07;63.74;100649.74;1742603;82;20996;-82
2021/07/09 04:49:31;;;;;;;14.33;5.50;;;;;;;23.15;63.69;100647.28;1742188;81;21035;-82
2021/07/09 04:51:57;;;;;;;14.50;4.55;;;;;;;23.20;63.59;100642.86;1742489;82;21027;-82
2021/07/09 04:54:23;;;;;;;8.65;4.45;;;;;;;23.26;63.44;100639.78;1742283;82;21467;-81
2021/07/09 04:56:49;;;;;;;21.57;5.80;;;;;;;23.35;63.31;100643.81;1742527;82;20972;-81
2021/07/09 04:59:16;;;;;;;9.33;4.58;;;;;;;23.42;63.15;100647.27;1742244;82;21015;-81
2021/07/09 05:01:43;;;;;;;7.55;5.15;;;;;;;23.52;62.92;100645.91;1742539;82;21482;-80
2021/07/09 05:04:09;;;;;;;8.83;5.00;;;;;;;23.60;62.50;100653.70;1742279;82;21028;-77
2021/07/09 05:06:36;;;;;;;9.45;4.62;;;;;;;23.65;62.36;100653.31;1742406;82;21020;-80
2021/07/09 05:09:06;;;;;;;11.15;4.37;;;;;;;23.71;61.99;100650.76;1742468;82;20992;-80
2021/07/09 05:11:34;;;;;;;;;;;;;;;23.75;61.87;100650.09;1744985;82;21066;-81
2021/07/09 05:14:03;;;;;;;11.22;4.25;;;;;;;23.79;61.54;100655.31;1742445;81;20107;-81
2021/07/09 05:16:29;;;;;;;12.15;4.35;;;;;;;23.84;61.43;100654.11;1742253;82;20976;-81
2021/07/09 05:18:56;;;;;;;6.00;3.85;;;;;;;23.93;61.66;100650.55;1742442;82;21023;-81
2021/07/09 05:21:25;;;;;;;7.08;3.33;;;;;;;24.00;61.59;100646.42;1742165;82;21016;-80
2021/07/09 05:23:52;;;;;;;9.60;4.00;;;;;;;24.08;61.02;100637.45;1742448;82;20989;-83
2021/07/09 05:26:18;;;;;;;8.28;4.08;;;;;;;24.22;60.71;100638.57;1741968;82;21048;-81
2021/07/09 05:28:44;;;;;;;6.62;3.37;;;;;;;24.33;60.36;100629.12;1742151;81;21574;-82
2021/07/09 05:31:11;;;;;;;9.53;3.65;;;;;;;24.49;60.28;100634.41;1742279;82;21462;-79
2021/07/09 05:33:37;;;;;;;31.30;4.28;;;;;;;24.60;59.39;100638.19;1742511;82;20952;-84
2021/07/09 05:36:04;;;;;;;10.65;3.20;;;;;;;24.74;59.58;100639.59;1742417;82;21035;-80
2021/07/09 05:38:30;;;;;;;10.10;4.80;;;;;;;24.89;59.02;100646.42;1742283;82;20968;-79
2021/07/09 05:40:57;;;;;;;7.65;3.67;;;;;;;25.03;58.60;100639.69;1742638;82;21032;-81
2021/07/09 05:43:23;;;;;;;6.10;3.42;;;;;;;25.06;57.87;100629.73;1742273;82;20984;-78
2021/07/09 05:45:49;;;;;;;11.68;3.70;;;;;;;25.06;57.64;100633.80;1742412;82;20976;-77
2021/07/09 05:48:15;;;;;;;7.67;3.50;;;;;;;25.04;57.25;100631.03;1742288;82;21047;-75
2021/07/09 05:50:41;;;;;;;3.67;3.22;;;;;;;25.06;57.35;100632.95;1742622;82;21455;-74
2021/07/09 05:53:08;;;;;;;12.05;3.33;;;;;;;25.08;57.58;100641.13;1742481;82;21007;-74
2021/07/09 05:55:35;;;;;;;11.48;3.87;;;;;;;25.08;57.46;100634.36;1742428;82;20996;-73
2021/07/09 05:58:01;;;;;;;11.12;3.35;;;;;;;25.14;57.61;100630.72;1742331;82;21004;-75
2021/07/09 06:00:27;;;;;;;3.05;2.52;;;;;;;25.24;57.25;100633.37;1742235;82;21050;-73
2021/07/09 06:02:53;;;;;;;6.70;3.35;;;;;;;25.26;56.77;100627.16;1742271;82;21039;-77
2021/07/09 06:05:20;;;;;;;5.97;3.52;;;;;;;25.33;56.14;100621.09;1742065;81;20992;-77
2021/07/09 06:07:46;;;;;;;4.87;3.58;;;;;;;25.38;57.13;100623.91;1742325;82;21023;-77
2021/07/09 06:10:14;;;;;;;9.78;3.40;;;;;;;25.43;56.88;100626.70;1742390;82;20984;-76
2021/07/09 06:12:40;;;;;;;6.45;3.10;;;;;;;25.51;56.87;100618.19;1742532;82;21016;-79
2021/07/09 06:15:08;;;;;;;9.85;3.35;;;;;;;25.68;56.39;100621.48;1742612;81;21012;-79
2021/07/09 06:17:34;;;;;;;12.60;3.80;;;;;;;25.81;56.36;100626.62;1742569;82;21035;-78
2021/07/09 06:20:04;;;;;;;7.35;3.15;;;;;;;25.93;55.77;100627.94;1742588;82;20952;-80
2021/07/09 06:22:28;;;;;;;4.40;3.30;;;;;;;26.04;55.55;100626.52;1721884;82;21020;-79
2021/07/09 06:24:54;;;;;;;10.70;3.75;;;;;;;26.22;55.75;100623.27;1742749;82;21008;-80
2021/07/09 06:27:21;;;;;;;4.35;3.30;;;;;;;26.29;54.95;100613.87;1742348;82;20972;-78
2021/07/09 06:29:47;;;;;;;5.40;2.92;;;;;;;26.41;54.58;100614.33;1742654;82;21472;-79
2021/07/09 06:32:13;;;;;;;25.97;4.75;;;;;;;26.49;53.71;100614.73;1751084;82;20942;-78
2021/07/09 06:34:39;;;;;;;5.90;3.45;;;;;;;26.58;54.07;100607.02;1753123;82;21015;-78
2021/07/09 06:37:06;;;;;;;5.47;3.15;;;;;;;26.65;52.93;100606.86;1753254;81;21034;-80
2021/07/09 06:39:32;;;;;;;4.03;2.83;;;;;;;26.71;53.18;100603.14;1753353;81;21034;-78
2021/07/09 06:41:58;;;;;;;11.38;3.47;;;;;;;26.85;53.46;100603.61;1753320;82;21046;-79
2021/07/09 06:44:24;;;;;;;11.20;4.75;;;;;;;26.94;52.97;100597.48;1753239;82;21509;-79
2021/07/09 06:46:50;;;;;;;9.10;3.60;;;;;;;27.01;52.47;100595.38;1753515;81;21525;-78
2021/07/09 06:49:16;;;;;;;3.85;2.87;;;;;;;27.13;52.86;100597.16;1753200;82;20995;-77
2021/07/09 06:51:43;;;;;;;13.00;3.10;;;;;;;27.26;53.11;100599.52;1753538;82;21529;-78
2021/07/09 06:54:09;;;;;;;13.25;3.40;;;;;;;27.38;52.59;100594.77;1753079;82;21025;-78
2021/07/09 06:56:35;;;;;;;6.28;3.27;;;;;;;27.53;52.67;100597.36;1753181;82;20990;-79
2021/07/09 06:59:02;;;;;;;6.22;3.22;;;;;;;27.63;51.71;100596.94;1753457;82;21050;-78
2021/07/09 07:01:29;;;;;;;13.35;3.80;;;;;;;27.75;51.65;100594.05;1753146;81;20999;-79
2021/07/09 07:03:55;;;;;;;15.30;3.95;;;;;;;27.83;51.95;100591.45;1753414;81;21494;-75
2021/07/09 07:06:21;;;;;;;8.65;4.00;;;;;;;27.96;52.20;100587.47;1753168;82;21018;-76
2021/07/09 07:08:47;;;;;;;13.80;3.87;;;;;;;28.08;52.24;100579.94;1753227;81;21022;-75
2021/07/09 07:11:14;;;;;;;16.55;4.67;;;;;;;28.16;51.65;100580.83;1753407;82;20983;-74
2021/07/09 07:13:40;;;;;;;8.63;3.67;;;;;;;28.25;51.96;100581.16;1753435;81;21002;-77
2021/07/09 07:16:07;;;;;;;10.18;3.62;;;;;;;28.37;51.96;100583.69;1753523;81;21014;-77
2021/07/09 07:18:33;;;;;;;4.15;3.35;;;;;;;28.47;51.11;100581.08;1752847;81;21580;-76
2021/07/09 07:21:00;;;;;;;10.45;3.85;;;;;;;28.54;50.86;100577.56;1753386;82;20983;-77
2021/07/09 07:23:27;;;;;;;8.40;3.72;;;;;;;28.67;50.75;100573.02;1753259;82;21014;-76
2021/07/09 07:25:54;;;;;;;7.83;3.95;;;;;;;28.77;50.46;100576.33;1753458;81;21085;-78
2021/07/09 07:28:21;;;;;;;9.83;3.55;;;;;;;28.83;49.39;100577.17;1752992;81;21576;-76
2021/07/09 07:30:47;;;;;;;5.28;3.60;;;;;;;28.87;49.47;100582.38;1753346;81;21078;-77
2021/07/09 07:33:14;;;;;;;6.95;3.85;;;;;;;28.96;49.63;100584.87;1752013;80;21025;-76
2021/07/09 07:35:41;;;;;;;8.53;3.80;;;;;;;29.08;49.04;100588.20;1748360;81;21535;-77
2021/07/09 07:38:08;;;;;;;4.78;4.28;;;;;;;29.15;48.88;100586.07;1740727;82;21024;-77
2021/07/09 07:40:36;;;;;;;9.15;3.58;;;;;;;29.27;48.20;100580.93;1738773;81;21040;-78
2021/07/09 07:43:03;;;;;;;7.97;3.47;;;;;;;29.40;48.46;100587.21;1723495;82;21009;-77
2021/07/09 07:45:31;;;;;;;10.32;3.37;;;;;;;29.52;48.05;100582.35;1723344;82;21531;-80
2021/07/09 07:47:57;;;;;;;8.15;3.25;;;;;;;29.62;47.65;100578.81;1725285;80;20977;-77
2021/07/09 07:50:24;;;;;;;67.20;6.10;;;;;;;29.71;47.47;100577.76;1734179;81;21499;-77
2021/07/09 07:52:51;;;;;;;34.55;4.12;;;;;;;29.81;47.75;100577.23;1745754;82;21010;-77
2021/07/09 07:55:17;;;;;;;8.10;3.17;;;;;;;29.89;47.14;100571.76;1753427;82;21009;-75
2021/07/09 07:57:44;;;;;;;4.58;3.22;;;;;;;30.01;46.79;100574.20;1744209;82;21508;-77
2021/07/09 08:00:13;;;;;;;6.78;3.10;;;;;;;30.04;46.60;100569.05;1723533;83;20986;-77
2021/07/09 08:02:40;;;;;;;6.70;3.92;;;;;;;30.05;45.87;100569.30;1723441;82;21040;-77
2021/07/09 08:05:08;;;;;;;8.60;3.25;;;;;;;30.15;46.72;100568.47;1723479;83;21016;-77
2021/07/09 08:07:34;;;;;;;9.48;3.40;;;;;;;30.22;46.71;100568.23;1728518;82;20985;-77
2021/07/09 08:10:01;;;;;;;6.47;3.52;;;;;;;30.31;46.73;100571.48;1753421;82;21005;-77
2021/07/09 08:12:27;;;;;;;7.50;3.83;;;;;;;30.42;46.09;100565.47;1753055;82;20982;-77
2021/07/09 08:14:54;;;;;;;9.63;4.15;;;;;;;30.53;45.75;100569.81;1752916;82;21001;-78
2021/07/09 08:17:21;;;;;;;5.97;3.30;;;;;;;30.58;44.50;100573.91;1753189;82;21009;-77
2021/07/09 08:19:48;;;;;;;5.25;3.20;;;;;;;30.71;45.36;100568.94;1731199;80;20978;-75
2021/07/09 08:22:14;;;;;;;9.35;3.90;;;;;;;30.87;46.00;100567.80;1750715;82;20989;-75
2021/07/09 08:24:40;;;;;;;17.70;3.67;;;;;;;31.00;45.14;100574.03;1742056;81;21036;-79
2021/07/09 08:27:28;;;;;;;24.72;4.47;;;;;;;31.13;45.21;100569.05;1723650;83;20989;-76
2021/07/09 08:29:54;;;;;;;3.95;3.22;;;;;;;31.25;44.33;100568.18;1741151;80;21104;-76
2021/07/09 08:32:20;;;;;;;5.72;3.33;;;;;;;31.35;44.04;100566.77;1726307;82;20988;-78
2021/07/09 08:34:47;;;;;;;6.25;3.85;;;;;;;31.43;43.56;100562.08;1734104;81;20973;-78
2021/07/09 08:37:13;;;;;;;7.35;4.22;;;;;;;31.52;43.14;100564.21;1732217;82;20969;-78
2021/07/09 08:39:39;;;;;;;4.10;3.60;;;;;;;31.64;43.28;100564.66;1739527;81;20977;-78
2021/07/09 08:42:05;;;;;;;24.95;5.70;;;;;;;31.72;42.79;100562.69;1739230;82;20981;-78
2021/07/09 08:44:32;;;;;;;9.78;3.85;;;;;;;31.81;42.91;100563.70;1731026;81;21021;-78
2021/07/09 08:46:58;;;;;;;3.62;3.17;;;;;;;31.90;42.59;100568.85;1726541;83;21017;-80
2021/07/09 08:49:24;;;;;;;6.60;3.70;;;;;;;31.98;42.36;100561.95;1725770;83;21047;-76
2021/07/09 08:51:51;;;;;;;4.92;3.62;;;;;;;32.08;41.99;100561.88;1744035;81;20961;-76
2021/07/09 08:54:18;;;;;;;8.73;3.77;;;;;;;32.19;41.72;100565.31;1756450;82;21437;-75
2021/07/09 08:56:46;;;;;;;5.62;4.05;;;;;;;32.17;40.66;100560.70;1739125;82;20947;-76
2021/07/09 08:59:13;;;;;;;9.65;4.30;;;;;;;32.22;41.91;100564.73;1756093;80;21520;-75
2021/07/09 09:01:58;;;;;;;14.70;10.08;;;;;;;32.32;42.25;100567.94;1755941;82;21571;-76
2021/07/09 09:04:30;;;;;;;14.38;8.30;;;;;;;32.46;41.11;100570.84;1756486;80;21000;-75
2021/07/09 09:07:07;;;;;;;10.45;5.40;;;;;;;32.55;39.99;100563.61;1769172;80;21455;-76
2021/07/09 09:09:37;;;;;;;6.08;3.85;;;;;;;32.62;39.57;100560.52;1739177;80;20998;-75
2021/07/09 09:12:14;;;;;;;7.42;4.45;;;;;;;32.63;40.17;100556.66;1729275;82;20955;-75
2021/07/09 09:14:47;;;;;;;7.72;3.95;;;;;;;32.73;40.25;100555.17;1724995;83;20997;-75
2021/07/09 09:17:36;;;;;;;10.23;4.17;;;;;;;32.85;39.07;100556.94;1724390;82;21526;-79
2021/07/09 09:20:14;;;;;;;5.67;4.33;;;;;;;32.98;39.29;100560.90;1725533;82;21022;-76
2021/07/09 09:22:54;;;;;;;14.68;4.03;;;;;;;33.14;39.22;100559.59;1725051;82;20994;-76
2021/07/09 09:25:24;;;;;;;7.20;4.03;;;;;;;33.25;38.98;100548.74;1725139;82;21034;-75
2021/07/09 09:28:10;;;;;;;13.40;4.25;;;;;;;33.32;38.82;100548.92;1725111;82;21003;-75
2021/07/09 09:30:39;;;;;;;7.65;4.42;;;;;;;33.44;38.57;100549.31;1723797;82;21000;-75
2021/07/09 09:33:09;;;;;;;14.43;4.28;;;;;;;33.54;38.33;100545.05;1724046;83;21085;-76
2021/07/09 09:35:41;;;;;;;8.85;3.80;;;;;;;33.60;38.64;100549.90;1723682;83;21042;-75
2021/07/09 09:38:13;;;;;;;18.65;5.08;;;;;;;33.68;38.39;100558.27;1725305;82;21006;-75
2021/07/09 09:40:43;;;;;;;7.53;5.08;;;;;;;33.73;37.61;100551.08;1724558;82;21596;-75
2021/07/09 09:43:19;;;;;;;7.65;4.33;;;;;;;33.69;37.47;100551.69;1725381;82;21031;-75
2021/07/09 09:45:58;;;;;;;11.00;4.20;;;;;;;33.82;37.92;100549.28;1725198;82;20986;-75
2021/07/09 09:48:46;;;;;;;8.95;4.60;;;;;;;33.81;38.05;100544.91;1725033;83;21474;-75
2021/07/09 09:51:28;;;;;;;4.60;4.12;;;;;;;33.89;38.03;100542.83;1717335;83;21074;-75
2021/07/09 09:53:58;;;;;;;7.60;4.60;;;;;;;33.97;36.82;100549.00;1659682;86;21034;-75
2021/07/09 09:56:43;;;;;;;6.60;5.58;;;;;;;34.10;37.75;100538.65;1659317;86;21034;-75
2021/07/09 09:59:22;;;;;;;6.92;4.28;;;;;;;34.21;36.02;100535.70;1659500;86;21086;-75
2021/07/09 10:01:57;;;;;;;9.38;4.35;;;;;;;34.29;36.50;100534.44;1659691;86;21082;-75
2021/07/09 10:04:26;;;;;;;7.05;4.12;;;;;;;34.06;35.15;100532.68;1659491;86;21050;-75
2021/07/09 10:06:53;;;;;;;7.80;3.92;;;;;;;34.22;36.30;100535.97;1659783;86;21026;-76
2021/07/09 10:09:21;;;;;;;7.42;4.92;;;;;;;34.31;36.26;100531.40;1659590;85;21075;-76
2021/07/09 10:11:48;;;;;;;5.05;4.53;;;;;;;34.39;35.58;100527.95;1659649;85;21039;-75
2021/07/09 10:14:21;;;;;;;8.35;5.47;;;;;;;34.49;35.51;100528.29;1659608;86;21018;-75
2021/07/09 10:16:51;;;;;;;10.80;5.00;;;;;;;34.60;35.50;100529.74;1659551;86;21038;-75
2021/07/09 10:19:43;;;;;;;6.95;4.45;;;;;;;34.64;34.94;100528.00;1659625;86;21010;-76
2021/07/09 10:22:13;;;;;;;8.23;4.80;;;;;;;34.65;34.90;100528.27;1659489;86;21094;-76
2021/07/09 10:24:44;;;;;;;8.35;4.75;;;;;;;34.73;34.40;100522.59;1659434;86;21498;-75
2021/07/09 10:27:12;;;;;;;13.22;5.03;;;;;;;34.63;34.04;100518.70;1659629;85;21014;-76
2021/07/09 10:29:44;;;;;;;6.10;4.53;;;;;;;34.51;33.81;100515.07;1688383;83;21566;-75
2021/07/09 10:32:11;;;;;;;11.73;5.60;;;;;;;34.45;34.09;100517.11;1722060;83;20999;-75
2021/07/09 10:34:49;;;;;;;9.00;5.78;;;;;;;34.51;34.38;100510.38;1721773;83;21002;-75
2021/07/09 10:37:30;;;;;;;9.50;6.00;;;;;;;34.41;34.54;100506.45;1722269;83;21509;-76
2021/07/09 10:40:10;;;;;;;10.43;5.17;;;;;;;34.68;34.69;100502.11;1722023;83;21022;-76
2021/07/09 10:42:40;;;;;;;7.40;4.75;;;;;;;34.80;34.45;100505.95;1721818;83;20991;-75
2021/07/09 10:45:24;;;;;;;8.00;5.42;;;;;;;34.88;34.51;100505.79;1722188;83;21022;-76
2021/07/09 10:48:17;;;;;;;5.65;5.17;;;;;;;34.98;34.09;100499.23;1721158;83;21490;-75
2021/07/09 10:50:51;;;;;;;5.80;5.22;;;;;;;35.09;34.44;100496.54;1721776;83;21002;-75
2021/07/09 10:53:25;;;;;;;5.85;5.28;;;;;;;35.31;34.31;100493.01;1701806;83;20991;-75
2021/07/09 10:56:05;;;;;;;9.33;5.70;;;;;;;35.31;34.56;100491.63;1721965;83;21490;-75
2021/07/09 10:58:41;;;;;;;51.50;6.60;;;;;;;35.29;33.51;100485.62;1721780;83;21501;-75
2021/07/09 11:01:16;;;;;;;8.18;5.47;;;;;;;35.17;33.43;100480.67;1721972;83;21062;-75
2021/07/09 11:04:09;;;;;;;5.53;5.03;;;;;;;35.23;34.02;100475.87;1721910;83;20998;-75
2021/07/09 11:06:39;;;;;;;9.00;5.87;;;;;;;35.32;33.83;100475.93;1721713;83;21548;-75
2021/07/09 11:09:09;;;;;;;12.98;5.87;;;;;;;35.42;33.85;100468.78;1721971;83;21010;-75
2021/07/09 11:11:47;;;;;;;7.95;5.22;;;;;;;35.56;33.90;100470.94;1721910;83;21113;-75
2021/07/09 11:14:36;;;;;;;9.30;4.90;;;;;;;35.46;32.55;100468.42;1722302;83;21564;-75
2021/07/09 11:17:16;;;;;;;9.30;5.10;;;;;;;35.62;33.92;100464.73;1722122;83;21204;-75
2021/07/09 11:19:42;;;;;;;9.90;5.45;;;;;;;35.75;34.03;100457.53;1719106;83;21048;-75
2021/07/09 11:22:12;;;;;;;20.68;6.53;;;;;;;35.73;32.66;100460.59;1722021;83;21477;-75
2021/07/09 11:24:49;;;;;;;8.38;6.22;;;;;;;35.88;32.90;100457.45;1721931;83;20994;-75
2021/07/09 11:27:13;;;;;;;9.13;6.05;;;;;;;35.99;32.48;100454.40;1721766;83;20975;-75
2021/07/09 11:29:45;;;;;;;12.80;6.40;;;;;;;36.05;33.02;100455.91;1716197;83;21050;-75